Time;durP1;ratioP1;P1;durP2;ratioP2;P2;SDS_P1;SDS_P2;PMS_P1;PMS_P2;Temp;Humidity;BMP_temperature;BMP_pressure;BME280_temperature;BME280_humidity;BME280_pressure;Samples;Min_cycle;Max_cycle;Signal;HPM_P1;HPM_P2
2022/06/01 04:00:26;;;;;;;6.20;5.70;;;13.10;99.90;;;;;;6039666;23;20388;-72
2022/06/01 04:02:54;;;;;;;6.57;6.00;;;13.10;99.90;;;;;;5015814;28;20445;-71
2022/06/01 04:05:22;;;;;;;6.70;6.20;;;13.10;99.90;;;;;;5017148;28;20448;-72
2022/06/01 04:07:50;;;;;;;5.70;5.30;;;13.10;99.90;;;;;;5015922;28;20529;-71
2022/06/01 04:10:17;;;;;;;8.80;6.00;;;13.10;99.90;;;;;;5016707;28;20483;-72
2022/06/01 04:12:44;;;;;;;6.30;5.80;;;13.10;99.90;;;;;;5016304;28;20646;-72
2022/06/01 04:15:11;;;;;;;5.97;5.50;;;13.20;99.90;;;;;;5015416;28;20548;-71
2022/06/01 04:17:40;;;;;;;6.47;5.97;;;13.20;99.90;;;;;;5016958;28;20464;-71
2022/06/01 04:20:08;;;;;;;7.47;6.77;;;13.20;99.90;;;;;;5014938;28;20452;-71
2022/06/01 04:22:38;;;;;;;8.73;7.77;;;13.20;99.90;;;;;;5016454;28;20484;-71
2022/06/01 04:25:06;;;;;;;6.93;6.23;;;13.20;99.90;;;;;;5015488;28;20456;-72
2022/06/01 04:27:33;;;;;;;7.70;7.10;;;13.20;99.90;;;;;;5015823;28;20457;-71
2022/06/01 04:29:59;;;;;;;6.60;6.10;;;13.20;99.90;;;;;;5015138;28;20461;-72
2022/06/01 04:32:31;;;;;;;6.50;5.90;;;13.20;99.90;;;;;;5015749;28;20469;-69
2022/06/01 04:34:59;;;;;;;7.17;6.57;;;13.20;99.90;;;;;;5016146;28;20466;-73
2022/06/01 04:37:26;;;;;;;7.23;6.43;;;13.20;99.90;;;;;;5015882;28;20461;-73
2022/06/01 04:39:53;;;;;;;8.70;6.60;;;13.10;99.90;;;;;;5018606;28;20449;-73
2022/06/01 04:42:20;;;;;;;6.63;5.90;;;13.20;99.90;;;;;;5018851;28;20879;-73
2022/06/01 04:44:47;;;;;;;8.00;6.73;;;13.20;99.90;;;;;;5019296;28;20457;-73
2022/06/01 04:47:14;;;;;;;6.97;6.40;;;13.20;99.90;;;;;;5019981;28;20488;-74
2022/06/01 04:49:41;;;;;;;6.60;6.10;;;13.20;99.90;;;;;;5021087;28;20463;-74
2022/06/01 04:52:09;;;;;;;6.83;5.77;;;13.20;99.90;;;;;;5017921;28;20481;-73
2022/06/01 04:54:36;;;;;;;7.00;6.30;;;13.30;99.90;;;;;;5016295;28;20449;-73
2022/06/01 04:57:03;;;;;;;7.10;6.60;;;13.30;99.90;;;;;;5015755;28;20948;-73
2022/06/01 04:59:29;;;;;;;8.10;7.00;;;13.30;99.90;;;;;;5015628;28;20460;-73
2022/06/01 05:01:56;;;;;;;6.20;5.80;;;13.30;99.90;;;;;;5015349;28;20867;-73
2022/06/01 05:04:23;;;;;;;7.17;6.57;;;13.40;99.90;;;;;;5017556;28;20464;-73
2022/06/01 05:06:50;;;;;;;6.07;5.60;;;13.50;99.90;;;;;;5016409;28;20463;-73
2022/06/01 05:09:18;;;;;;;5.80;5.40;;;13.50;99.90;;;;;;5016158;28;20452;-72
2022/06/01 05:11:44;;;;;;;6.93;6.23;;;13.60;99.90;;;;;;5016558;28;20484;-72
2022/06/01 05:14:11;;;;;;;6.50;6.00;;;13.70;99.90;;;;;;5016484;28;20922;-72
2022/06/01 05:16:38;;;;;;;7.10;6.50;;;13.80;99.90;;;;;;5015923;28;20453;-73
2022/06/01 05:19:04;;;;;;;7.00;6.30;;;13.90;99.90;;;;;;5015576;28;20457;-72
2022/06/01 05:21:31;;;;;;;8.00;6.00;;;13.90;99.90;;;;;;5016409;28;20472;-73
2022/06/01 05:23:58;;;;;;;7.10;6.50;;;14.00;99.90;;;;;;5014773;28;20448;-72
2022/06/01 05:26:27;;;;;;;8.03;6.17;;;14.00;99.90;;;;;;5014925;28;20948;-73
2022/06/01 05:28:54;;;;;;;8.73;6.70;;;14.10;99.90;;;;;;5015034;28;20460;-73
2022/06/01 05:31:21;;;;;;;6.50;5.90;;;14.20;99.90;;;;;;5015879;28;20492;-73
2022/06/01 05:33:49;;;;;;;10.30;6.43;;;14.30;99.90;;;;;;5016741;28;20452;-72
2022/06/01 05:36:18;;;;;;;7.57;6.87;;;14.50;99.90;;;;;;5015118;28;20493;-73
2022/06/01 05:38:46;;;;;;;8.67;6.80;;;14.60;99.90;;;;;;5015123;28;20457;-72
2022/06/01 05:41:14;;;;;;;7.27;6.50;;;14.80;99.90;;;;;;5014724;28;20476;-73
2022/06/01 05:43:42;;;;;;;7.07;6.40;;;14.80;99.90;;;;;;5014691;28;20461;-73
2022/06/01 05:46:09;;;;;;;6.60;6.10;;;15.00;99.90;;;;;;5014675;28;20459;-73
2022/06/01 05:48:37;;;;;;;7.30;6.20;;;15.20;99.90;;;;;;5015033;28;20485;-72
2022/06/01 05:51:04;;;;;;;6.17;5.67;;;15.40;99.90;;;;;;5015883;28;20483;-72
2022/06/01 05:53:31;;;;;;;6.20;5.70;;;15.50;99.90;;;;;;5019049;28;20463;-73
2022/06/01 05:55:57;;;;;;;6.43;5.73;;;15.60;99.90;;;;;;5017967;28;20459;-73
2022/06/01 05:58:27;;;;;;;5.97;5.40;;;15.70;99.90;;;;;;5018288;28;20456;-73
2022/06/01 06:00:56;;;;;;;6.10;5.60;;;15.80;99.90;;;;;;5018946;28;20485;-74
2022/06/01 06:03:24;;;;;;;5.37;4.97;;;15.90;99.90;;;;;;5017997;28;20931;-73
2022/06/01 06:08:36;;;;;;;5.40;4.90;;;16.30;99.90;;;;;;5018272;28;20456;-73
2022/06/01 06:11:03;;;;;;;5.23;4.63;;;16.50;99.90;;;;;;5017858;28;20994;-72
2022/06/01 06:13:30;;;;;;;6.50;5.90;;;16.70;99.90;;;;;;5025473;28;20487;-73
2022/06/01 06:15:58;;;;;;;5.00;4.70;;;16.90;99.90;;;;;;5027238;28;20453;-73
2022/06/01 06:18:25;;;;;;;6.77;5.43;;;17.10;99.90;;;;;;5018933;28;20816;-73
2022/06/01 06:20:51;;;;;;;7.73;5.30;;;17.30;99.90;;;;;;5018075;28;20980;-74
2022/06/01 06:23:18;;;;;;;7.37;5.77;;;17.50;99.90;;;;;;5017782;28;20453;-74
2022/06/01 06:25:45;;;;;;;5.90;5.07;;;17.60;99.90;;;;;;5017909;28;20457;-73
2022/06/01 06:28:12;;;;;;;6.33;5.73;;;17.60;99.90;;;;;;5017222;28;20460;-73
2022/06/01 06:30:40;;;;;;;6.43;5.83;;;17.80;99.90;;;;;;5017902;28;20477;-73
2022/06/01 06:33:08;;;;;;;4.83;4.43;;;18.00;99.90;;;;;;5019153;28;20504;-73
2022/06/01 06:35:35;;;;;;;7.57;6.90;;;18.20;99.90;;;;;;5018769;28;20464;-73
2022/06/01 06:38:04;;;;;;;5.90;5.40;;;18.50;99.90;;;;;;5019182;28;20483;-73
2022/06/01 06:40:31;;;;;;;5.30;4.90;;;18.80;99.90;;;;;;5020543;28;20472;-73
2022/06/01 06:42:58;;;;;;;5.70;4.93;;;19.00;99.90;;;;;;5020670;28;20457;-73
2022/06/01 06:45:25;;;;;;;7.37;5.03;;;19.20;99.90;;;;;;5021345;28;20838;-73
2022/06/01 06:47:51;;;;;;;4.53;4.13;;;19.40;99.90;;;;;;5021105;28;20457;-73
2022/06/01 06:50:21;;;;;;;5.77;5.23;;;19.60;99.90;;;;;;5021694;28;20513;-74
2022/06/01 06:52:48;;;;;;;7.03;4.20;;;19.90;99.90;;;;;;5020586;28;20488;-75
2022/06/01 06:55:15;;;;;;;7.63;3.70;;;20.30;99.90;;;;;;5018557;28;20824;-73
2022/06/01 06:57:43;;;;;;;3.83;3.50;;;20.80;99.90;;;;;;5018417;28;20481;-74
2022/06/01 07:00:11;;;;;;;3.80;2.97;;;21.40;99.90;;;;;;5019189;28;20457;-74
2022/06/01 07:02:38;;;;;;;3.80;3.33;;;22.00;99.90;;;;;;5017372;28;20457;-73
2022/06/01 07:05:06;;;;;;;4.67;4.23;;;22.60;99.90;;;;;;5019405;28;20460;-74
2022/06/01 07:07:34;;;;;;;5.20;3.80;;;23.20;99.90;;;;;;5018245;28;20860;-73
2022/06/01 07:10:01;;;;;;;5.90;3.03;;;23.70;99.90;;;;;;5019709;28;20453;-73
2022/06/01 07:12:28;;;;;;;3.80;2.80;;;24.10;98.10;;;;;;5017154;28;21010;-73
2022/06/01 07:14:54;;;;;;;3.30;3.00;;;24.30;97.90;;;;;;5017713;28;20457;-71
2022/06/01 07:17:21;;;;;;;6.23;3.30;;;24.90;97.40;;;;;;5017806;28;20456;-72
2022/06/01 07:19:48;;;;;;;3.43;3.23;;;25.30;96.80;;;;;;5017179;28;20852;-71
2022/06/01 07:22:16;;;;;;;2.87;2.40;;;25.40;92.30;;;;;;5017051;28;20480;-71
2022/06/01 07:24:44;;;;;;;7.80;2.97;;;26.10;90.10;;;;;;5016573;28;20813;-70
2022/06/01 07:27:10;;;;;;;3.03;2.73;;;26.50;84.80;;;;;;5016800;28;20478;-71
2022/06/01 07:29:37;;;;;;;3.27;2.97;;;26.50;84.20;;;;;;5016505;28;20448;-70
2022/06/01 07:32:04;;;;;;;4.40;3.10;;;26.70;87.70;;;;;;5016952;28;20535;-73
2022/06/01 07:34:31;;;;;;;5.13;3.10;;;26.80;81.70;;;;;;5016565;28;20944;-72
2022/06/01 07:43:05;;;;;;;4.00;3.40;;;27.20;82.20;;;;;;5017448;28;20464;-72
2022/06/01 07:45:14;;;;;;;6.57;4.17;;;27.90;79.00;;;;;;5015665;28;20439;-72
2022/06/01 07:47:41;;;;;;;3.20;2.83;;;28.70;74.50;;;;;;5016092;28;20867;-72
2022/06/01 07:50:09;;;;;;;3.07;2.87;;;29.20;70.60;;;;;;5015809;28;20482;-73
2022/06/01 07:52:36;;;;;;;4.27;3.37;;;29.50;68.20;;;;;;5015059;28;20512;-73
2022/06/01 07:55:05;;;;;;;3.60;3.30;;;29.80;68.00;;;;;;5015644;28;20463;-73
2022/06/01 07:57:33;;;;;;;3.07;2.87;;;29.70;64.40;;;;;;5015014;28;20487;-72
2022/06/01 07:59:59;;;;;;;3.23;2.90;;;29.80;63.70;;;;;;5015082;28;20457;-72
2022/06/01 08:02:26;;;;;;;3.57;3.27;;;29.70;63.10;;;;;;5014952;28;21069;-72
2022/06/01 08:04:53;;;;;;;3.53;3.23;;;29.80;63.40;;;;;;5015264;28;20457;-72
2022/06/01 08:07:20;;;;;;;3.30;3.00;;;29.70;64.80;;;;;;5015669;28;20489;-72
2022/06/01 08:09:47;;;;;;;2.80;2.60;;;30.10;63.60;;;;;;5015084;28;20457;-72
2022/06/01 08:14:59;;;;;;;4.13;2.73;;;30.30;59.30;;;;;;5014683;28;20436;-72
2022/06/01 08:17:26;;;;;;;3.80;1.83;;;30.40;59.50;;;;;;5014778;28;20481;-72
2022/06/01 08:19:53;;;;;;;1.67;1.57;;;30.50;55.90;;;;;;5014697;28;20965;-72
2022/06/01 08:22:19;;;;;;;3.43;2.10;;;31.00;53.10;;;;;;5015174;28;20849;-72
2022/06/01 08:24:46;;;;;;;2.33;1.90;;;31.40;49.60;;;;;;5014875;28;20473;-72
2022/06/01 08:27:14;;;;;;;2.10;1.77;;;31.30;49.20;;;;;;5014303;28;20453;-72
2022/06/01 08:29:41;;;;;;;3.00;2.00;;;31.40;49.60;;;;;;5014621;28;20492;-72
2022/06/01 08:32:08;;;;;;;2.97;2.50;;;31.50;50.40;;;;;;5013926;28;20983;-72
2022/06/01 08:34:36;;;;;;;4.27;3.00;;;31.70;51.00;;;;;;5014475;28;20511;-72
2022/06/01 08:37:02;;;;;;;3.10;2.90;;;31.50;54.50;;;;;;5014704;28;20994;-72
2022/06/01 08:39:29;;;;;;;3.37;3.07;;;30.90;55.00;;;;;;5015296;28;20971;-72
2022/06/01 08:41:57;;;;;;;4.33;3.80;;;29.80;57.80;;;;;;5015693;28;20480;-73
2022/06/01 08:44:29;;;;;;;3.17;2.90;;;29.50;58.80;;;;;;5015132;28;20457;-72
2022/06/01 08:46:59;;;;;;;6.80;3.70;;;29.10;59.30;;;;;;5014778;28;20441;-72
2022/06/01 08:49:28;;;;;;;3.50;3.30;;;29.00;59.70;;;;;;5015051;28;20457;-72
2022/06/01 08:51:55;;;;;;;3.50;2.70;;;28.40;59.40;;;;;;5014686;28;20488;-72
2022/06/01 08:54:22;;;;;;;6.20;2.67;;;27.70;62.00;;;;;;5015299;28;20460;-72
2022/06/01 08:56:51;;;;;;;3.27;3.07;;;27.10;58.30;;;;;;5014137;28;20453;-71
2022/06/01 08:59:29;;;;;;;3.20;2.47;;;26.50;60.40;;;;;;5013888;28;20932;-71
2022/06/01 09:02:05;;;;;;;3.77;3.03;;;25.90;62.30;;;;;;5013673;28;20480;-71
2022/06/01 09:04:41;;;;;;;5.37;2.97;;;25.30;62.90;;;;;;5014331;28;20441;-71
2022/06/01 09:07:19;;;;;;;4.70;2.57;;;24.90;64.70;;;;;;5014581;28;20444;-72
2022/06/01 09:10:01;;;;;;;2.60;2.40;;;24.90;65.10;;;;;;5014238;28;20449;-72
2022/06/01 09:12:28;;;;;;;2.40;2.30;;;24.90;63.50;;;;;;5013646;28;20983;-72
2022/06/01 09:14:58;;;;;;;3.10;2.87;;;25.40;64.20;;;;;;5014292;28;20552;-73
2022/06/01 09:17:25;;;;;;;3.07;2.50;;;25.90;64.00;;;;;;5013875;28;20908;-73
2022/06/01 09:22:43;;;;;;;3.60;2.10;;;27.60;59.10;;;;;;5014101;28;20412;-73
2022/06/01 09:25:13;;;;;;;4.10;2.23;;;28.50;56.90;;;;;;5013985;28;20798;-73
2022/06/01 09:27:42;;;;;;;2.40;2.20;;;29.40;56.00;;;;;;5017801;28;20441;-72
2022/06/01 09:30:24;;;;;;;1.70;1.70;;;30.10;54.40;;;;;;5017893;28;20448;-73
2022/06/01 09:33:22;;;;;;;2.40;2.20;;;30.90;52.70;;;;;;5017465;28;20460;-73
2022/06/01 09:36:01;;;;;;;1.83;1.80;;;31.50;50.30;;;;;;5014371;28;20456;-73
2022/06/01 09:38:36;;;;;;;2.23;2.13;;;32.30;53.60;;;;;;5017887;28;20440;-74
2022/06/01 09:41:05;;;;;;;5.60;2.30;;;32.90;48.90;;;;;;5017519;28;20476;-73
2022/06/01 09:43:32;;;;;;;2.30;2.20;;;32.40;47.60;;;;;;5018405;28;20807;-73
2022/06/01 09:46:00;;;;;;;4.30;2.03;;;32.30;47.70;;;;;;5017759;28;20456;-73
2022/06/01 09:48:30;;;;;;;2.70;1.60;;;32.50;48.60;;;;;;5018285;28;21034;-73
2022/06/01 09:51:04;;;;;;;2.20;2.10;;;32.80;45.80;;;;;;5018468;28;20480;-73
2022/06/01 09:53:36;;;;;;;3.30;2.27;;;32.70;46.80;;;;;;5017502;28;20468;-72
2022/06/01 09:56:04;;;;;;;2.63;1.97;;;32.10;48.10;;;;;;5017467;28;20472;-73
2022/06/01 10:06:58;;;;;;;2.50;1.90;;;30.50;51.20;;;;;;5017345;28;20465;-72
2022/06/01 10:09:27;;;;;;;3.70;2.23;;;30.80;50.10;;;;;;5017287;28;20551;-73
2022/06/01 10:11:55;;;;;;;2.60;1.80;;;31.10;50.30;;;;;;5016825;28;20998;-73
2022/06/01 10:14:26;;;;;;;4.80;2.60;;;31.30;49.00;;;;;;5017181;28;20460;-73
2022/06/01 10:17:17;;;;;;;2.33;2.20;;;31.10;49.60;;;;;;5016822;28;20948;-72
2022/06/01 10:19:49;;;;;;;2.20;2.10;;;30.90;48.00;;;;;;5017270;28;20441;-73
2022/06/01 10:22:24;;;;;;;2.90;2.20;;;30.40;49.90;;;;;;5017338;28;20480;-72
2022/06/01 10:24:55;;;;;;;2.23;2.03;;;29.60;49.40;;;;;;5017036;28;20447;-73
2022/06/01 10:27:27;;;;;;;2.20;1.97;;;29.40;50.50;;;;;;5017135;28;20803;-71
2022/06/01 10:30:12;;;;;;;1.83;1.73;;;29.30;48.20;;;;;;5017869;28;20532;-71
2022/06/01 10:32:47;;;;;;;2.40;2.20;;;29.10;47.80;;;;;;5017790;28;20975;-71
2022/06/01 10:35:26;;;;;;;2.60;1.70;;;28.80;47.40;;;;;;5017571;28;20440;-71
2022/06/01 10:38:00;;;;;;;2.93;1.50;;;28.70;49.90;;;;;;5017223;28;20869;-71
2022/06/01 10:40:34;;;;;;;2.10;1.50;;;28.40;48.00;;;;;;5016614;28;20450;-71
2022/06/01 10:43:17;;;;;;;1.90;1.70;;;28.50;50.00;;;;;;5016483;28;20524;-71
2022/06/01 10:45:49;;;;;;;2.33;1.57;;;28.60;50.30;;;;;;5016446;28;20440;-71
2022/06/01 10:48:24;;;;;;;2.60;1.70;;;28.80;47.60;;;;;;5016002;28;20805;-71
2022/06/01 10:50:57;;;;;;;1.40;1.33;;;28.80;47.80;;;;;;5016752;28;20504;-72
2022/06/01 10:53:34;;;;;;;1.40;1.30;;;28.90;45.70;;;;;;5016675;28;20560;-71
2022/06/01 10:56:01;;;;;;;1.53;1.43;;;28.90;45.80;;;;;;5016336;28;20444;-71
2022/06/01 10:58:29;;;;;;;4.10;1.10;;;29.40;48.20;;;;;;5016876;28;20459;-71
2022/06/01 11:01:08;;;;;;;1.40;1.30;;;29.70;42.80;;;;;;5015915;28;20488;-71
2022/06/01 11:04:16;;;;;;;1.43;1.37;;;29.80;45.80;;;;;;5016220;28;20468;-72
2022/06/01 11:07:09;;;;;;;1.80;1.70;;;30.00;44.40;;;;;;4994110;28;20539;-72
2022/06/01 11:09:44;;;;;;;2.40;1.33;;;30.60;44.20;;;;;;5015944;28;20444;-71
2022/06/01 11:12:21;;;;;;;1.77;1.63;;;30.90;43.70;;;;;;5015755;28;20480;-72
2022/06/01 11:15:09;;;;;;;1.80;1.80;;;31.00;43.50;;;;;;5015928;28;20444;-72
2022/06/01 11:17:43;;;;;;;1.57;1.47;;;30.50;41.70;;;;;;5016019;28;20445;-71
2022/06/01 11:20:23;;;;;;;3.07;1.73;;;29.50;42.20;;;;;;5015512;28;20441;-71
2022/06/01 11:23:05;;;;;;;1.23;1.23;;;29.30;45.60;;;;;;5015650;28;20437;-71
2022/06/01 11:25:37;;;;;;;3.60;1.53;;;29.40;47.70;;;;;;5015562;28;20437;-69
2022/06/01 11:28:17;;;;;;;4.37;1.60;;;29.40;45.60;;;;;;5015286;28;20829;-71
2022/06/01 11:30:56;;;;;;;1.57;1.33;;;29.40;44.00;;;;;;5015831;28;20476;-72
2022/06/01 11:33:33;;;;;;;1.30;1.20;;;29.20;44.80;;;;;;5015556;28;20457;-72
2022/06/01 11:36:06;;;;;;;2.20;1.27;;;29.00;44.00;;;;;;5015013;28;20527;-72
2022/06/01 11:38:38;;;;;;;3.43;1.60;;;28.90;43.80;;;;;;5015170;28;20492;-72
2022/06/01 11:41:10;;;;;;;1.50;1.40;;;28.80;45.50;;;;;;5014950;28;20979;-72
2022/06/01 11:43:42;;;;;;;1.60;1.50;;;29.00;46.10;;;;;;5016047;28;20487;-72
2022/06/01 11:46:14;;;;;;;1.60;1.50;;;29.40;47.00;;;;;;5015282;28;20532;-73
2022/06/01 11:48:52;;;;;;;1.53;1.43;;;29.70;45.60;;;;;;5014875;28;20495;-72
2022/06/01 11:51:21;;;;;;;2.20;1.90;;;29.40;45.20;;;;;;5015022;28;20559;-72
2022/06/01 11:54:04;;;;;;;1.20;1.10;;;29.30;45.90;;;;;;5015146;28;20555;-72
2022/06/01 11:56:44;;;;;;;1.40;1.40;;;29.20;43.30;;;;;;5014655;28;20927;-72
2022/06/01 11:59:21;;;;;;;2.00;1.73;;;29.20;45.00;;;;;;5015317;28;20437;-72
2022/06/01 12:01:53;;;;;;;2.87;1.73;;;29.00;45.70;;;;;;5014576;28;20480;-72
2022/06/01 12:04:29;;;;;;;3.63;1.50;;;29.00;45.00;;;;;;5014792;28;20433;-72
2022/06/01 12:07:05;;;;;;;6.50;1.70;;;29.10;47.20;;;;;;5014696;28;20440;-72
2022/06/01 12:09:40;;;;;;;1.60;1.50;;;29.10;44.90;;;;;;5014900;28;20475;-67
2022/06/01 12:12:08;;;;;;;1.90;1.30;;;28.80;42.40;;;;;;5015320;28;20469;-66
2022/06/01 12:14:39;;;;;;;2.37;1.67;;;28.30;42.70;;;;;;5015299;28;20804;-66
2022/06/01 12:17:39;;;;;;;1.63;1.30;;;28.30;47.00;;;;;;5015278;28;20437;-66
2022/06/01 12:20:45;;;;;;;1.63;1.53;;;28.40;47.40;;;;;;4973415;28;20435;-67
2022/06/01 12:29:42;;;;;;;2.50;1.60;;;28.60;46.10;;;;;;5015772;28;20471;-66
2022/06/01 12:32:14;;;;;;;1.40;1.40;;;28.60;48.10;;;;;;5016617;28;20500;-65
2022/06/01 12:34:55;;;;;;;4.20;2.23;;;28.40;46.40;;;;;;5016467;28;20437;-66
2022/06/01 12:37:26;;;;;;;1.70;1.60;;;28.20;48.10;;;;;;5016620;28;20487;-66
2022/06/01 12:39:58;;;;;;;1.83;1.73;;;28.00;47.90;;;;;;5016076;28;20444;-65
2022/06/01 12:42:30;;;;;;;3.90;1.70;;;27.70;47.90;;;;;;5016385;28;20879;-65
2022/06/01 12:44:59;;;;;;;2.33;1.77;;;27.50;49.40;;;;;;5016538;28;20486;-65
2022/06/01 12:47:29;;;;;;;2.87;1.60;;;27.40;51.20;;;;;;5016727;28;20453;-67
2022/06/01 12:49:56;;;;;;;1.50;1.50;;;27.30;50.00;;;;;;5015832;28;20440;-66
2022/06/01 12:52:25;;;;;;;2.60;1.73;;;27.30;51.00;;;;;;5015851;28;20468;-66
2022/06/01 12:54:57;;;;;;;3.37;1.87;;;27.60;50.70;;;;;;5016432;28;20457;-66
2022/06/01 12:57:26;;;;;;;2.70;1.90;;;27.80;50.70;;;;;;5016507;28;20871;-71
2022/06/01 12:59:58;;;;;;;2.40;2.20;;;28.10;50.00;;;;;;5016279;28;20456;-70
2022/06/01 13:02:27;;;;;;;2.57;1.80;;;28.10;49.70;;;;;;5018576;28;20491;-70
2022/06/01 13:04:56;;;;;;;1.80;1.80;;;28.00;48.20;;;;;;5018647;28;20456;-70
2022/06/01 13:07:29;;;;;;;4.93;1.90;;;27.90;49.50;;;;;;5017748;28;20812;-70
2022/06/01 13:10:01;;;;;;;3.13;1.50;;;27.70;48.80;;;;;;5018311;28;20454;-71
2022/06/01 13:12:31;;;;;;;2.33;1.93;;;27.70;50.70;;;;;;5018072;28;20483;-71
2022/06/01 13:15:12;;;;;;;3.43;2.00;;;27.70;50.00;;;;;;5017955;28;20452;-71
2022/06/01 13:17:46;;;;;;;3.23;2.10;;;27.50;49.40;;;;;;5017903;28;20444;-70
2022/06/01 13:20:14;;;;;;;2.90;1.80;;;27.20;50.80;;;;;;5018294;28;21030;-68
2022/06/01 13:22:44;;;;;;;3.63;1.93;;;26.90;53.00;;;;;;5018170;28;20552;-67
2022/06/01 13:25:16;;;;;;;2.63;1.80;;;26.80;51.90;;;;;;5018119;28;20820;-68
2022/06/01 13:27:43;;;;;;;2.83;1.90;;;26.70;52.10;;;;;;5017951;28;20437;-68
2022/06/01 13:30:15;;;;;;;5.63;2.10;;;26.70;51.90;;;;;;5018008;28;20460;-68
2022/06/01 13:32:44;;;;;;;4.57;2.30;;;26.60;51.90;;;;;;5017878;28;20528;-67
2022/06/01 13:35:25;;;;;;;2.03;1.90;;;26.50;52.40;;;;;;5017921;28;20452;-67
2022/06/01 13:37:53;;;;;;;1.90;1.80;;;26.30;52.70;;;;;;5017757;28;20498;-67
2022/06/01 13:40:26;;;;;;;3.63;2.00;;;26.60;55.10;;;;;;5017513;28;20483;-68
2022/06/01 13:43:01;;;;;;;2.80;1.77;;;26.90;52.50;;;;;;5017157;28;20448;-69
2022/06/01 13:45:37;;;;;;;3.77;2.00;;;27.10;51.00;;;;;;5017610;28;20452;-68
2022/06/01 13:48:07;;;;;;;2.87;2.00;;;27.30;51.20;;;;;;5017076;28;20912;-67
2022/06/01 13:50:41;;;;;;;2.03;1.83;;;27.20;52.10;;;;;;5017050;28;20461;-72
2022/06/01 13:53:14;;;;;;;3.63;1.83;;;27.40;53.10;;;;;;5016825;28;20976;-72
2022/06/01 13:56:03;;;;;;;2.63;1.93;;;27.70;51.50;;;;;;5017111;28;20441;-72
2022/06/01 13:58:52;;;;;;;2.07;1.53;;;28.00;50.90;;;;;;5017128;28;20792;-72
2022/06/01 14:01:34;;;;;;;3.13;2.00;;;28.10;52.40;;;;;;5016934;28;20487;-72
2022/06/01 14:04:12;;;;;;;2.30;2.10;;;27.90;51.50;;;;;;5017303;28;20847;-72
2022/06/01 14:06:42;;;;;;;4.33;1.90;;;28.00;51.60;;;;;;5016904;28;20441;-72
2022/06/01 14:09:12;;;;;;;1.93;1.80;;;28.00;48.00;;;;;;5017911;28;20447;-72
2022/06/01 14:11:39;;;;;;;5.23;1.77;;;28.10;50.30;;;;;;5016424;28;20485;-71
2022/06/01 14:14:12;;;;;;;2.40;2.30;;;28.20;52.70;;;;;;5016961;28;20472;-71
2022/06/01 14:16:47;;;;;;;3.63;1.70;;;28.30;50.30;;;;;;5016511;28;20920;-72
2022/06/01 14:19:14;;;;;;;2.00;1.73;;;28.30;49.70;;;;;;5018474;28;20468;-72
2022/06/01 14:21:42;;;;;;;2.13;1.80;;;28.10;48.90;;;;;;5016682;28;20522;-72
2022/06/01 14:24:08;;;;;;;3.20;1.73;;;27.90;48.60;;;;;;5017012;28;20507;-72
2022/06/01 14:29:19;;;;;;;1.90;1.80;;;27.50;50.80;;;;;;5016550;28;20943;-72
2022/06/01 14:31:48;;;;;;;1.43;1.40;;;27.30;50.50;;;;;;5016179;28;20487;-72
2022/06/01 14:34:16;;;;;;;3.63;2.90;;;27.00;50.20;;;;;;5016254;28;20473;-72
2022/06/01 14:36:43;;;;;;;3.60;2.10;;;27.00;50.20;;;;;;5016337;28;20464;-72
2022/06/01 14:39:10;;;;;;;1.90;1.70;;;26.70;51.00;;;;;;5016396;28;20463;-72
2022/06/01 14:41:40;;;;;;;2.20;2.00;;;26.50;51.10;;;;;;5016256;28;20568;-72
2022/06/01 14:44:09;;;;;;;2.00;1.90;;;26.30;50.70;;;;;;5016226;28;20457;-72
2022/06/01 14:46:36;;;;;;;4.07;2.30;;;26.20;51.30;;;;;;5015859;28;20468;-72
2022/06/01 14:49:04;;;;;;;2.47;2.27;;;26.10;52.30;;;;;;5016153;28;20457;-72
2022/06/01 14:51:34;;;;;;;3.30;1.97;;;25.80;50.80;;;;;;5016061;28;20484;-73
2022/06/01 14:54:03;;;;;;;3.53;1.90;;;25.70;52.20;;;;;;5016131;28;20472;-73
2022/06/01 14:56:31;;;;;;;3.87;2.10;;;25.70;52.30;;;;;;5015544;28;20460;-73
2022/06/01 14:59:01;;;;;;;3.80;2.40;;;25.60;51.70;;;;;;5016112;28;20456;-73
2022/06/01 15:01:32;;;;;;;2.03;1.93;;;25.60;51.50;;;;;;5015454;28;20483;-74
2022/06/01 15:04:00;;;;;;;1.83;1.70;;;25.60;53.10;;;;;;5015990;28;20508;-73
2022/06/01 15:06:28;;;;;;;1.63;1.53;;;25.70;52.00;;;;;;5015781;28;20536;-73
2022/06/01 15:08:54;;;;;;;2.43;1.70;;;25.90;52.10;;;;;;5015770;28;20458;-73
2022/06/01 15:11:22;;;;;;;2.10;1.90;;;26.00;50.80;;;;;;5015856;28;20811;-73
2022/06/01 15:13:49;;;;;;;2.40;2.17;;;26.10;50.70;;;;;;5015815;28;20473;-73
2022/06/01 15:16:16;;;;;;;4.30;1.90;;;26.00;51.90;;;;;;5015916;28;20488;-73
2022/06/01 15:18:45;;;;;;;1.93;1.83;;;25.90;51.50;;;;;;5015783;28;20479;-73
2022/06/01 15:21:14;;;;;;;2.47;1.60;;;25.80;52.00;;;;;;5015401;28;20477;-72
2022/06/01 15:23:42;;;;;;;2.83;1.93;;;25.70;51.00;;;;;;5014281;28;20940;-72
2022/06/01 15:26:11;;;;;;;2.17;1.77;;;25.70;52.50;;;;;;5015422;28;20503;-72
2022/06/01 15:28:38;;;;;;;2.13;1.87;;;25.70;53.00;;;;;;5015986;28;20456;-73
2022/06/01 15:39:30;;;;;;;1.37;1.37;;;26.00;52.30;;;;;;5015095;28;20421;-73
2022/06/01 15:41:56;;;;;;;1.77;1.67;;;26.20;52.10;;;;;;5015283;28;20551;-73
2022/06/01 15:44:23;;;;;;;2.17;1.37;;;26.40;53.00;;;;;;5015350;28;20452;-73
2022/06/01 15:46:51;;;;;;;5.53;1.90;;;26.60;53.00;;;;;;5015285;28;20456;-73
2022/06/01 15:49:19;;;;;;;3.53;1.90;;;26.90;50.90;;;;;;5015179;28;20452;-73
2022/06/01 15:51:54;;;;;;;1.77;1.63;;;27.10;51.40;;;;;;5015097;28;20481;-73
2022/06/01 15:54:23;;;;;;;3.53;1.40;;;27.10;51.10;;;;;;5015121;28;20460;-73
2022/06/01 15:56:50;;;;;;;2.53;1.57;;;27.10;50.60;;;;;;5015109;28;20464;-73
2022/06/01 15:59:16;;;;;;;3.53;2.20;;;27.00;50.20;;;;;;5014853;28;20453;-73
2022/06/01 16:01:44;;;;;;;2.20;1.40;;;27.00;50.70;;;;;;5014735;28;20535;-73
2022/06/01 16:04:11;;;;;;;3.27;1.60;;;26.80;50.20;;;;;;5014760;28;20457;-73
2022/06/01 16:06:39;;;;;;;6.03;2.43;;;26.70;50.20;;;;;;5015545;28;20457;-73
2022/06/01 16:09:06;;;;;;;3.07;1.87;;;26.50;51.50;;;;;;5017785;28;20970;-73
2022/06/01 16:11:35;;;;;;;4.97;1.60;;;26.40;50.90;;;;;;5017908;28;20484;-73
2022/06/01 16:14:02;;;;;;;6.80;1.40;;;26.30;51.50;;;;;;5018701;28;20526;-69
2022/06/01 16:16:32;;;;;;;3.30;2.03;;;26.30;52.20;;;;;;5014411;28;20949;-68
2022/06/01 16:18:59;;;;;;;1.50;1.50;;;26.20;51.20;;;;;;5014736;28;20449;-69
2022/06/01 16:21:26;;;;;;;1.80;1.70;;;26.10;51.40;;;;;;5014339;28;20485;-70
2022/06/01 16:23:53;;;;;;;3.40;1.53;;;26.00;52.00;;;;;;5014718;28;20528;-72
2022/06/01 16:26:20;;;;;;;3.43;1.60;;;25.90;51.90;;;;;;5015006;28;20452;-72
2022/06/01 16:28:48;;;;;;;2.30;1.60;;;25.80;52.10;;;;;;5015917;28;20463;-72
2022/06/01 16:31:17;;;;;;;5.13;1.80;;;25.90;52.10;;;;;;5015072;28;20476;-73
2022/06/01 16:33:45;;;;;;;1.83;1.73;;;25.90;52.40;;;;;;5015302;28;20476;-72
2022/06/01 16:36:28;;;;;;;6.60;1.73;;;25.80;51.90;;;;;;5015930;28;20477;-73
2022/06/01 16:38:56;;;;;;;1.87;1.77;;;25.80;51.60;;;;;;5017756;28;20448;-73
2022/06/01 16:41:23;;;;;;;4.53;1.60;;;25.60;51.60;;;;;;5017924;28;20529;-73
2022/06/01 16:43:51;;;;;;;1.77;1.67;;;25.50;52.50;;;;;;5017949;28;20499;-72
2022/06/01 16:46:19;;;;;;;2.30;1.57;;;25.40;52.80;;;;;;5017274;28;20459;-72
2022/06/01 16:48:45;;;;;;;2.40;1.73;;;25.40;52.80;;;;;;5015792;28;20457;-72
2022/06/01 16:51:12;;;;;;;3.20;1.93;;;25.30;52.70;;;;;;5015158;28;20527;-72
2022/06/01 16:53:39;;;;;;;1.93;1.83;;;25.20;52.10;;;;;;5015509;28;20457;-73
2022/06/01 16:56:06;;;;;;;1.70;1.60;;;25.10;52.50;;;;;;5014070;28;20540;-73
2022/06/01 16:58:33;;;;;;;1.70;1.50;;;25.00;52.30;;;;;;5013753;28;20847;-74
2022/06/01 17:01:01;;;;;;;5.47;1.57;;;24.90;52.30;;;;;;5013757;28;20525;-73
2022/06/01 17:03:28;;;;;;;1.60;1.50;;;24.90;52.50;;;;;;5014083;28;20456;-73
2022/06/01 17:05:54;;;;;;;3.70;1.93;;;24.70;52.30;;;;;;5013807;28;20507;-73
2022/06/01 17:08:22;;;;;;;2.00;1.73;;;24.60;52.60;;;;;;5015435;28;20452;-73
2022/06/01 17:10:49;;;;;;;1.30;1.30;;;24.60;52.80;;;;;;5016226;28;20508;-72
2022/06/01 17:13:16;;;;;;;2.23;1.70;;;24.50;53.10;;;;;;5014910;28;20453;-72
2022/06/01 17:15:43;;;;;;;2.53;1.60;;;24.30;52.80;;;;;;5013932;28;20482;-72
2022/06/01 17:18:11;;;;;;;2.00;1.80;;;24.20;53.00;;;;;;5013563;28;20936;-72
2022/06/01 17:20:43;;;;;;;1.80;1.70;;;24.10;53.00;;;;;;5013780;28;20479;-72
2022/06/01 17:23:11;;;;;;;3.10;1.60;;;24.00;53.10;;;;;;5013915;28;20441;-72
2022/06/01 17:25:38;;;;;;;4.83;1.57;;;23.90;53.70;;;;;;5013839;28;20583;-72
2022/06/01 17:28:06;;;;;;;2.40;1.60;;;23.70;54.20;;;;;;5013808;28;20453;-72
2022/06/01 17:30:34;;;;;;;1.70;1.60;;;23.70;54.00;;;;;;5013649;28;20457;-72
2022/06/01 17:33:02;;;;;;;1.60;1.60;;;23.60;53.90;;;;;;5013746;28;20832;-72
2022/06/01 17:35:33;;;;;;;2.40;2.20;;;23.60;54.00;;;;;;5013791;28;20481;-70
2022/06/01 17:38:01;;;;;;;2.33;2.23;;;23.50;58.50;;;;;;5013520;28;20885;-70
2022/06/01 17:40:29;;;;;;;2.37;2.27;;;23.40;56.00;;;;;;5013153;28;20820;-69
2022/06/01 17:42:56;;;;;;;2.30;2.07;;;23.40;56.90;;;;;;5013369;28;20457;-69